Daleville, Alabama
Current Conditions -  °F | °C
As of 9:47 PM on Saturday 22 Nov 2014 (Local Time) from KOZR Reporting Station
Light Rain Light Rain  
Wind Chill: 59°   Ceiling: 500
Heat Index: 59°   Visibility: 7mi
Dew Point: 59°   Wind: 7mph
Humidity: 100%   Direction: 70°ENE
Pressure: 30.1"   Gusts: NA
Location:  31.31°N, 85.71°W
Report Text: KOZR 230347Z AUTO 07006KT 7SM -RA OVC005 15/15 A3010 RMK AO2 RAB0332DZB0305E0345
Loading
Personal Weather Stations






























Interactive Weather Map New forecast layout! Learn more

10-Day Weather Forecast

Advertisements
Track Severe Weather on mobile